Accueil
METAR-TAF:

METAR-TAF

Aéroports :

Napakiak, Alaska, États-Unis

latitude: 60-41-25N, longitude: 161-58-43W, altitude: 5 m

Observation

Le bulletin a été fait il y a 1 heure et 8 minutes, à 11:56 UTC
Vent 4 kt de nord/nord-est
Température -18°C
Humidité 71%
Pression 1012 hPa
Visibilité: 16.1 km
Nuages fragmentés à une hauteur de 10000 ft
Nuages fragmentés à une hauteur de 12000 ft

METAR: PANA 291156Z AUTO 03004KT 10SM BKN100 BKN120 M18/M22 A2988 RMK AO2 SLP116 T11831217 11183 21217 58032 PWINO FZRANO $

Heure: 04:04 (13:04 UTC)


TAF: absent

Observations et prévisions météorologiques de plus de 4000 aéroports (messages METAR et TAF).

Les stations disponibles sont représentées par des disques jaunes et rouges sur la carte.

Passer la souris dessus pour voir le nom de la station.

Cliquer dessus pour voir les observations et prévisions météorologiques.

Pour changer de carte: cliquez sur les boutons verts avec une croix noire pour zoomer, sur le bouton vert avec un tiret pour effectuer un zoom arrière, ou sur les flèches vertes pour les cartes adjacentes.


METAR-TAF: